Time;durP1;ratioP1;P1;durP2;ratioP2;P2;SDS_P1;SDS_P2;PMS_P1;PMS_P2;Temp;Humidity;BMP_temperature;BMP_pressure;BME280_temperature;BME280_humidity;BME280_pressure;Samples;Min_cycle;Max_cycle;Signal;HPM_P1;HPM_P2
2022/06/10 00:04:13;;;;;;;2.50;2.30;;;16.60;95.40;;;;;;10405251;28;20217;-78
2022/06/10 00:09:16;;;;;;;2.57;2.30;;;16.50;96.10;;;;;;10408348;28;20268;-78
2022/06/10 00:14:19;;;;;;;2.27;2.10;;;16.50;95.40;;;;;;10424738;22;20202;-82
2022/06/10 00:19:21;;;;;;;5.40;2.47;;;16.40;94.80;;;;;;10404449;28;20222;-82
2022/06/10 00:24:23;;;;;;;2.40;2.30;;;16.30;95.80;;;;;;10413554;28;20225;-81
2022/06/10 00:29:27;;;;;;;2.80;2.60;;;16.20;96.10;;;;;;10405940;28;20248;-82
2022/06/10 00:34:29;;;;;;;3.00;2.30;;;16.20;96.00;;;;;;10409530;28;20197;-81
2022/06/10 00:39:32;;;;;;;4.50;2.90;;;16.20;96.50;;;;;;10401189;28;20289;-81
2022/06/10 00:44:39;;;;;;;2.60;2.47;;;16.10;95.80;;;;;;10401483;28;20251;-82
2022/06/10 00:49:45;;;;;;;2.63;2.43;;;16.10;96.20;;;;;;10397016;28;20237;-82
2022/06/10 00:54:48;;;;;;;2.70;2.23;;;16.10;96.10;;;;;;10416578;28;20226;-82
2022/06/10 00:59:55;;;;;;;4.30;3.20;;;16.00;96.10;;;;;;10412678;28;20591;-81
2022/06/10 01:04:57;;;;;;;3.90;2.70;;;16.00;96.60;;;;;;10403151;28;20225;-80
2022/06/10 01:10:02;;;;;;;4.30;3.00;;;16.00;96.90;;;;;;10414450;28;20749;-82
2022/06/10 01:15:28;;;;;;;4.50;2.70;;;16.00;96.60;;;;;;10407818;28;20257;-81
2022/06/10 01:20:43;;;;;;;5.57;3.50;;;15.90;97.00;;;;;;10410489;28;20198;-82
2022/06/10 01:26:14;;;;;;;2.83;2.57;;;15.90;97.20;;;;;;10416275;28;20220;-82
2022/06/10 01:31:22;;;;;;;3.60;3.17;;;15.80;96.30;;;;;;10409588;28;20737;-80
2022/06/10 01:36:32;;;;;;;2.93;2.73;;;15.80;97.50;;;;;;10403828;28;20584;-81
2022/06/10 01:41:45;;;;;;;3.23;2.80;;;15.80;97.40;;;;;;10411415;28;20202;-81
2022/06/10 01:46:54;;;;;;;3.87;2.70;;;15.70;96.70;;;;;;10398886;28;20234;-80
2022/06/10 01:52:01;;;;;;;2.50;2.30;;;15.70;98.20;;;;;;10395053;28;20601;-80
2022/06/10 01:57:09;;;;;;;3.10;2.70;;;15.60;98.40;;;;;;10398927;28;20622;-80
2022/06/10 02:02:17;;;;;;;3.77;2.40;;;15.70;98.90;;;;;;10409073;28;20581;-80
2022/06/10 02:07:25;;;;;;;4.23;2.87;;;15.70;97.60;;;;;;10402042;28;20225;-81
2022/06/10 02:12:32;;;;;;;3.63;2.30;;;15.70;98.10;;;;;;10401823;28;20240;-81
2022/06/10 02:17:39;;;;;;;3.03;2.70;;;15.60;97.60;;;;;;10404422;28;20226;-82
2022/06/10 02:22:45;;;;;;;2.37;2.20;;;15.60;98.50;;;;;;10404025;28;20198;-82
2022/06/10 02:27:52;;;;;;;2.70;2.13;;;15.50;97.90;;;;;;10397184;28;20230;-80
2022/06/10 02:32:58;;;;;;;3.00;2.70;;;15.50;97.60;;;;;;10385663;28;20194;-80
2022/06/10 02:38:09;;;;;;;2.60;2.40;;;15.50;98.20;;;;;;10406270;28;20225;-81
2022/06/10 02:43:19;;;;;;;4.10;2.33;;;15.50;98.30;;;;;;10414931;28;20202;-82
2022/06/10 02:48:33;;;;;;;5.80;2.50;;;15.40;98.10;;;;;;10389120;28;20309;-81
2022/06/10 02:53:35;;;;;;;3.90;2.73;;;15.40;98.90;;;;;;10404227;28;20676;-80
2022/06/10 03:04:13;;;;;;;4.07;2.73;;;15.40;97.50;;;;;;10405794;28;20213;-81
2022/06/10 03:09:19;;;;;;;3.00;2.80;;;15.30;98.80;;;;;;10409535;28;20249;-80
2022/06/10 03:14:31;;;;;;;3.90;3.60;;;15.30;98.70;;;;;;10406662;28;20237;-80
2022/06/10 03:19:46;;;;;;;7.50;3.23;;;15.30;98.90;;;;;;10409243;28;20198;-82
2022/06/10 03:24:56;;;;;;;2.97;2.77;;;15.20;98.40;;;;;;10411440;28;20671;-83
2022/06/10 03:30:06;;;;;;;3.13;2.80;;;15.20;99.40;;;;;;10402177;28;20202;-81
2022/06/10 03:35:13;;;;;;;4.00;3.30;;;15.20;98.80;;;;;;10416955;28;20221;-82
2022/06/10 03:40:19;;;;;;;4.17;3.17;;;15.20;99.10;;;;;;10386751;28;20212;-82
2022/06/10 03:45:25;;;;;;;3.50;2.97;;;15.20;99.70;;;;;;10399131;28;20300;-80
2022/06/10 03:50:35;;;;;;;3.40;3.07;;;15.20;99.30;;;;;;10404283;28;20198;-81
2022/06/10 03:55:37;;;;;;;4.37;2.90;;;15.20;99.50;;;;;;10388864;28;20233;-83
2022/06/10 04:00:40;;;;;;;3.60;3.07;;;15.20;99.40;;;;;;10412364;28;20279;-81
2022/06/10 04:05:44;;;;;;;4.30;2.93;;;15.20;99.80;;;;;;10406486;28;20222;-82
2022/06/10 04:10:46;;;;;;;3.33;3.03;;;15.20;99.90;;;;;;10391771;28;20202;-82
2022/06/10 04:15:48;;;;;;;3.50;3.10;;;15.20;99.90;;;;;;10408376;28;20226;-81
2022/06/10 04:20:52;;;;;;;3.90;3.40;;;15.20;99.70;;;;;;10421034;28;20688;-81
2022/06/10 04:25:54;;;;;;;5.93;3.60;;;15.20;99.90;;;;;;10401425;28;20214;-81
2022/06/10 04:30:56;;;;;;;3.70;3.50;;;15.20;99.90;;;;;;10389316;28;20258;-82
2022/06/10 04:36:00;;;;;;;3.03;2.73;;;15.20;99.90;;;;;;10414666;28;20221;-80
2022/06/10 04:41:05;;;;;;;4.23;3.40;;;15.30;99.90;;;;;;10411889;28;20249;-82
2022/06/10 04:46:09;;;;;;;3.80;3.50;;;15.30;99.90;;;;;;10417825;28;20224;-80
2022/06/10 04:51:13;;;;;;;5.10;3.90;;;15.30;99.90;;;;;;10409970;28;20201;-80
2022/06/10 04:56:15;;;;;;;4.70;3.70;;;15.40;99.90;;;;;;10394592;28;20222;-81
2022/06/10 05:01:17;;;;;;;4.63;3.50;;;15.40;99.90;;;;;;10415305;28;20197;-80
2022/06/10 05:06:21;;;;;;;4.20;3.80;;;15.50;99.90;;;;;;10410304;28;20261;-81
2022/06/10 05:11:23;;;;;;;3.97;3.60;;;15.50;99.90;;;;;;10400699;28;20338;-82
2022/06/10 05:16:26;;;;;;;4.57;3.50;;;15.50;99.90;;;;;;10381442;28;20316;-82
2022/06/10 05:21:30;;;;;;;4.17;3.70;;;15.60;99.90;;;;;;10408100;28;20253;-80
2022/06/10 05:26:33;;;;;;;4.80;3.90;;;15.60;99.90;;;;;;10393485;28;20222;-81
2022/06/10 05:31:35;;;;;;;3.97;3.50;;;15.70;99.90;;;;;;10391499;28;20202;-82
2022/06/10 05:36:39;;;;;;;3.30;3.10;;;15.70;99.90;;;;;;10415289;28;20292;-81
2022/06/10 05:47:01;;;;;;;3.80;3.50;;;15.80;99.90;;;;;;10411460;28;20311;-80
2022/06/10 05:52:06;;;;;;;3.67;3.47;;;15.90;99.90;;;;;;10403169;28;20214;-80
2022/06/10 05:57:08;;;;;;;4.10;3.70;;;16.00;99.90;;;;;;10389993;28;20717;-82
2022/06/10 06:02:13;;;;;;;4.87;4.10;;;16.10;99.90;;;;;;10409601;28;20228;-81
2022/06/10 06:07:19;;;;;;;5.63;3.60;;;16.10;99.90;;;;;;10402592;28;20217;-82
2022/06/10 06:12:22;;;;;;;3.80;3.50;;;16.20;99.90;;;;;;10408632;28;20292;-82
2022/06/10 06:17:24;;;;;;;4.23;3.90;;;16.30;99.90;;;;;;10421676;28;20221;-82
2022/06/10 06:22:28;;;;;;;4.10;3.80;;;16.40;99.90;;;;;;10421713;28;20658;-82
2022/06/10 06:27:30;;;;;;;3.53;3.20;;;16.60;99.90;;;;;;10405625;28;20221;-81
2022/06/10 06:32:32;;;;;;;3.73;3.43;;;16.70;99.90;;;;;;10402869;28;20201;-82
2022/06/10 06:37:35;;;;;;;4.70;3.97;;;16.80;99.90;;;;;;10397554;28;20245;-82
2022/06/10 06:42:38;;;;;;;7.73;4.30;;;17.00;99.90;;;;;;10395766;28;20600;-82
2022/06/10 06:47:40;;;;;;;5.33;3.90;;;17.20;99.90;;;;;;10389481;28;20625;-82
2022/06/10 06:52:44;;;;;;;4.80;4.40;;;17.50;99.90;;;;;;10404631;28;20202;-82
2022/06/10 06:57:46;;;;;;;3.93;3.53;;;17.80;99.90;;;;;;10422164;28;20218;-82
2022/06/10 07:02:48;;;;;;;4.77;4.33;;;18.10;99.50;;;;;;10423257;28;20224;-82
2022/06/10 07:07:52;;;;;;;4.43;4.03;;;18.40;98.50;;;;;;10422018;28;20308;-82
2022/06/10 07:12:54;;;;;;;4.77;3.73;;;18.70;98.10;;;;;;10397204;28;20202;-82
2022/06/10 07:17:57;;;;;;;4.07;3.53;;;19.00;97.20;;;;;;10418557;28;20230;-82
2022/06/10 07:23:01;;;;;;;6.60;4.10;;;19.30;96.30;;;;;;10403689;28;20576;-82
2022/06/10 07:28:03;;;;;;;3.83;2.77;;;19.60;95.80;;;;;;10416976;28;20256;-82
2022/06/10 07:33:05;;;;;;;8.27;3.47;;;20.00;94.50;;;;;;10421695;28;20240;-82
2022/06/10 07:38:10;;;;;;;5.80;3.77;;;20.30;94.80;;;;;;10417872;28;20225;-82
2022/06/10 07:43:12;;;;;;;5.70;3.47;;;20.60;94.30;;;;;;10412096;28;20210;-82
2022/06/10 07:48:15;;;;;;;4.83;2.97;;;21.00;93.10;;;;;;10445490;28;20272;-82
2022/06/10 07:53:19;;;;;;;4.60;3.27;;;21.50;92.60;;;;;;10433724;28;20201;-82
2022/06/10 07:58:24;;;;;;;3.50;3.20;;;22.00;92.00;;;;;;10421885;28;20224;-82
2022/06/10 08:03:27;;;;;;;3.43;2.50;;;22.50;92.10;;;;;;10417765;28;20223;-82
2022/06/10 08:08:31;;;;;;;6.20;3.17;;;23.20;90.70;;;;;;10401935;28;20301;-83
2022/06/10 08:13:33;;;;;;;4.07;3.60;;;23.80;90.30;;;;;;10405360;28;20289;-83
2022/06/10 08:18:37;;;;;;;4.73;3.80;;;24.40;87.50;;;;;;10407388;28;20226;-83
2022/06/10 08:23:41;;;;;;;7.60;3.30;;;24.90;86.40;;;;;;10428617;28;20205;-83
2022/06/10 08:28:46;;;;;;;3.33;3.03;;;25.40;83.80;;;;;;10422325;28;20225;-81
2022/06/10 08:33:48;;;;;;;3.43;2.97;;;25.80;83.20;;;;;;10415038;28;20248;-82
2022/06/10 08:38:52;;;;;;;2.97;2.50;;;26.10;80.40;;;;;;10408608;28;20209;-82
2022/06/10 08:44:12;;;;;;;3.90;2.70;;;26.50;80.10;;;;;;10417012;28;20203;-82
2022/06/10 08:49:37;;;;;;;5.37;2.40;;;26.80;76.70;;;;;;10410876;28;20289;-82
2022/06/10 08:54:48;;;;;;;3.83;2.97;;;27.10;74.60;;;;;;10425428;28;20217;-80
2022/06/10 08:59:51;;;;;;;3.47;1.90;;;27.30;72.50;;;;;;10424994;28;20670;-81
2022/06/10 09:04:58;;;;;;;4.70;2.60;;;27.60;71.80;;;;;;10417975;28;20222;-81
2022/06/10 09:10:04;;;;;;;5.80;2.77;;;27.50;68.40;;;;;;10432678;28;20201;-81
2022/06/10 09:15:08;;;;;;;2.43;2.23;;;27.30;69.30;;;;;;10410604;28;20276;-80
2022/06/10 09:20:16;;;;;;;2.77;2.57;;;26.90;71.10;;;;;;10429075;28;20209;-81
2022/06/10 09:25:25;;;;;;;2.47;2.20;;;27.00;70.80;;;;;;10430033;28;20229;-80
2022/06/10 09:30:34;;;;;;;2.40;2.30;;;27.30;67.70;;;;;;10431169;28;20205;-81
2022/06/10 09:35:43;;;;;;;2.73;2.37;;;27.80;67.00;;;;;;10433428;28;20214;-81
2022/06/10 09:40:57;;;;;;;4.87;3.47;;;27.60;66.30;;;;;;10411311;28;20225;-81
2022/06/10 09:46:11;;;;;;;3.20;2.20;;;26.90;66.70;;;;;;10407930;28;20221;-80
2022/06/10 09:51:21;;;;;;;5.80;3.50;;;26.00;68.10;;;;;;10424747;28;20208;-81
2022/06/10 09:56:54;;;;;;;3.20;2.10;;;25.30;68.50;;;;;;10417815;28;20228;-80
2022/06/10 10:02:04;;;;;;;3.83;3.20;;;24.70;72.80;;;;;;10411020;28;20198;-81
2022/06/10 10:07:13;;;;;;;4.10;2.60;;;24.30;70.30;;;;;;10422156;28;20229;-80
2022/06/10 10:12:27;;;;;;;2.83;2.63;;;23.80;71.60;;;;;;10418548;28;20202;-81
2022/06/10 10:17:57;;;;;;;2.83;2.53;;;23.50;76.10;;;;;;10425042;28;20246;-80
2022/06/10 10:23:16;;;;;;;5.90;3.33;;;23.50;76.70;;;;;;10401026;28;20217;-81
2022/06/10 10:28:22;;;;;;;3.03;2.73;;;23.80;75.90;;;;;;10405143;28;20237;-81
2022/06/10 10:33:24;;;;;;;2.47;2.27;;;23.90;72.50;;;;;;10399565;28;20203;-81
2022/06/10 10:38:35;;;;;;;4.10;3.40;;;24.00;74.00;;;;;;10423132;28;20226;-81
2022/06/10 10:43:38;;;;;;;4.53;3.50;;;24.20;69.00;;;;;;10423244;28;20202;-81
2022/06/10 10:48:47;;;;;;;3.00;2.50;;;24.10;70.10;;;;;;10425918;28;20277;-81
2022/06/10 10:53:54;;;;;;;2.87;2.60;;;23.80;71.20;;;;;;10422073;28;20210;-81
2022/06/10 10:58:58;;;;;;;3.10;2.90;;;23.70;71.20;;;;;;10423055;28;20238;-81
2022/06/10 11:04:01;;;;;;;3.67;3.00;;;23.40;71.40;;;;;;10425417;28;20260;-81
2022/06/10 11:09:16;;;;;;;4.73;2.33;;;23.30;72.20;;;;;;10417877;28;20209;-81
2022/06/10 11:14:25;;;;;;;2.80;2.60;;;23.10;70.70;;;;;;10422334;28;20646;-81
2022/06/10 11:19:40;;;;;;;2.63;2.43;;;22.90;72.80;;;;;;10424436;28;20248;-81
2022/06/10 11:24:45;;;;;;;2.77;2.47;;;22.80;74.80;;;;;;10404512;28;20240;-81
2022/06/10 11:29:58;;;;;;;4.40;2.73;;;22.80;73.60;;;;;;10406245;28;20231;-81
2022/06/10 11:35:02;;;;;;;6.53;2.77;;;22.80;74.50;;;;;;10398063;28;20222;-81
2022/06/10 11:40:13;;;;;;;2.90;2.60;;;22.90;72.50;;;;;;10385541;28;20210;-81
2022/06/10 11:45:21;;;;;;;2.50;2.30;;;23.00;71.20;;;;;;10410363;28;20320;-82
2022/06/10 11:50:30;;;;;;;2.83;2.03;;;23.00;72.40;;;;;;10434872;28;20193;-82
2022/06/10 11:55:38;;;;;;;2.17;1.97;;;23.00;71.90;;;;;;10412918;28;20596;-82
2022/06/10 12:00:45;;;;;;;2.97;2.67;;;23.00;72.20;;;;;;10405292;28;20564;-81
2022/06/10 12:05:55;;;;;;;2.93;2.50;;;23.10;71.10;;;;;;10398282;28;20221;-80
2022/06/10 12:11:02;;;;;;;3.90;2.50;;;23.10;71.10;;;;;;10392716;28;20202;-80
2022/06/10 12:16:08;;;;;;;2.57;2.30;;;23.00;73.70;;;;;;10434424;22;21054;-78
2022/06/10 12:21:17;;;;;;;2.50;2.30;;;23.00;71.00;;;;;;10413817;28;20209;-79
2022/06/10 12:26:31;;;;;;;3.33;2.20;;;23.00;70.40;;;;;;10413881;28;20217;-78
2022/06/10 12:31:45;;;;;;;2.73;2.23;;;23.10;72.60;;;;;;10416875;28;20679;-79
2022/06/10 12:36:50;;;;;;;1.70;1.60;;;23.00;69.70;;;;;;10416257;28;20308;-79
2022/06/10 12:41:59;;;;;;;2.67;2.20;;;23.10;71.40;;;;;;10420743;28;20665;-79
2022/06/10 12:47:07;;;;;;;3.37;2.23;;;23.10;70.90;;;;;;10422959;28;20218;-78
2022/06/10 12:52:25;;;;;;;4.23;3.00;;;23.10;69.80;;;;;;10424659;28;20202;-78
2022/06/10 12:57:35;;;;;;;1.90;1.80;;;23.10;68.20;;;;;;10417394;28;20222;-76
2022/06/10 13:02:44;;;;;;;3.60;2.10;;;23.10;73.00;;;;;;10422204;28;20206;-78
2022/06/10 13:07:49;;;;;;;3.00;2.10;;;23.10;69.30;;;;;;10419282;28;20245;-79
2022/06/10 13:12:51;;;;;;;3.17;2.30;;;23.20;70.60;;;;;;10418679;28;20205;-78
2022/06/10 13:18:00;;;;;;;2.73;2.10;;;23.30;68.90;;;;;;10421476;28;20234;-77
2022/06/10 13:23:14;;;;;;;1.73;1.60;;;23.40;69.60;;;;;;10418732;28;20198;-77
2022/06/10 13:28:22;;;;;;;3.07;1.97;;;23.50;70.90;;;;;;10420432;28;20218;-79
2022/06/10 13:33:27;;;;;;;2.00;1.90;;;23.50;71.60;;;;;;10419892;28;20226;-79
2022/06/10 13:38:33;;;;;;;4.27;2.83;;;23.40;75.10;;;;;;10420919;28;20727;-79
2022/06/10 13:43:36;;;;;;;2.53;1.93;;;23.40;70.00;;;;;;10421994;28;20731;-79
2022/06/10 13:48:39;;;;;;;2.13;1.70;;;23.40;70.90;;;;;;10417285;28;20592;-79
2022/06/10 13:53:53;;;;;;;2.07;1.97;;;23.30;72.20;;;;;;10418627;28;20285;-79
2022/06/10 13:58:58;;;;;;;2.33;2.20;;;23.40;68.60;;;;;;10420160;28;20301;-79
2022/06/10 14:04:08;;;;;;;2.03;1.93;;;23.50;69.50;;;;;;10422019;28;20202;-78
2022/06/10 14:09:19;;;;;;;3.70;1.60;;;23.60;66.80;;;;;;10421255;28;20681;-78
2022/06/10 14:14:22;;;;;;;4.60;2.40;;;23.70;65.30;;;;;;10411293;28;20285;-78
2022/06/10 14:19:26;;;;;;;2.20;2.00;;;23.70;65.30;;;;;;10406501;28;20225;-79
2022/06/10 14:24:30;;;;;;;7.70;3.50;;;23.70;65.60;;;;;;10426794;28;20205;-78
2022/06/10 14:29:42;;;;;;;3.43;2.40;;;23.70;64.80;;;;;;10427217;28;20221;-78
2022/06/10 14:34:46;;;;;;;1.90;1.80;;;23.60;66.60;;;;;;10430085;28;20198;-79
2022/06/10 14:40:18;;;;;;;2.73;2.00;;;23.50;66.30;;;;;;10412537;28;20742;-79
2022/06/10 14:45:28;;;;;;;4.07;1.97;;;23.40;66.10;;;;;;10413365;28;20249;-79
2022/06/10 14:50:32;;;;;;;2.03;1.83;;;23.40;66.00;;;;;;10419319;28;20198;-78
2022/06/10 14:55:35;;;;;;;2.93;2.00;;;23.40;68.90;;;;;;10422130;28;20308;-79
2022/06/10 15:00:40;;;;;;;3.57;2.10;;;23.50;66.80;;;;;;10420211;28;20206;-79
2022/06/10 15:11:04;;;;;;;2.00;1.90;;;23.60;65.70;;;;;;10421191;28;20684;-79
2022/06/10 15:16:07;;;;;;;2.23;1.73;;;23.60;65.40;;;;;;10400925;28;20230;-79
2022/06/10 15:21:14;;;;;;;2.03;1.93;;;23.60;65.00;;;;;;10418793;28;20202;-79
2022/06/10 15:26:22;;;;;;;6.90;2.17;;;23.60;66.60;;;;;;10418490;28;20214;-79
2022/06/10 15:31:24;;;;;;;2.53;2.03;;;23.70;65.20;;;;;;10425028;28;20202;-79
2022/06/10 15:41:47;;;;;;;2.20;2.10;;;23.80;62.60;;;;;;10412855;28;20607;-78
2022/06/10 15:46:50;;;;;;;1.37;1.37;;;23.80;67.40;;;;;;10413794;28;20283;-77
2022/06/10 15:51:57;;;;;;;2.43;2.23;;;23.80;65.80;;;;;;10398968;28;20202;-77
2022/06/10 15:57:09;;;;;;;1.80;1.70;;;23.60;68.50;;;;;;10408740;28;20297;-78
2022/06/10 16:02:15;;;;;;;2.07;1.87;;;23.50;63.70;;;;;;10410624;28;20201;-78
2022/06/10 16:07:20;;;;;;;3.63;2.03;;;23.40;64.10;;;;;;10392130;28;20760;-79
2022/06/10 16:17:47;;;;;;;2.53;1.90;;;23.20;64.20;;;;;;10402539;28;20271;-78
2022/06/10 16:22:51;;;;;;;3.13;2.43;;;23.20;62.30;;;;;;10404893;28;20297;-78
2022/06/10 16:27:56;;;;;;;3.40;1.97;;;23.10;65.10;;;;;;10400799;28;20237;-78
2022/06/10 16:33:00;;;;;;;3.17;1.93;;;23.00;68.70;;;;;;10398518;28;20205;-77
2022/06/10 16:38:12;;;;;;;2.20;1.90;;;23.10;66.60;;;;;;10409923;28;20708;-77
2022/06/10 16:43:17;;;;;;;2.23;1.70;;;23.10;70.30;;;;;;10401608;28;20236;-79
2022/06/10 16:48:22;;;;;;;2.17;2.07;;;23.10;69.60;;;;;;10397952;28;20221;-79
2022/06/10 16:53:25;;;;;;;2.30;2.20;;;23.00;72.40;;;;;;10406982;28;20197;-77
2022/06/10 16:58:34;;;;;;;2.23;2.10;;;23.00;67.90;;;;;;10413207;28;20305;-78
2022/06/10 17:03:37;;;;;;;2.50;2.30;;;22.90;69.90;;;;;;10412747;28;20198;-78
2022/06/10 17:08:40;;;;;;;2.70;2.50;;;22.90;70.60;;;;;;10405960;28;20229;-78
2022/06/10 17:13:43;;;;;;;2.53;2.33;;;22.90;71.20;;;;;;10405529;28;20198;-78
2022/06/10 17:18:45;;;;;;;2.50;2.00;;;22.80;75.30;;;;;;10413212;28;20600;-78
2022/06/10 17:23:48;;;;;;;3.60;2.50;;;22.80;71.20;;;;;;10421223;28;20671;-78
2022/06/10 17:28:55;;;;;;;2.50;2.30;;;22.70;73.30;;;;;;10418354;28;20237;-77
2022/06/10 17:33:58;;;;;;;2.93;2.50;;;22.60;73.90;;;;;;10403777;28;20206;-76
2022/06/10 17:39:04;;;;;;;2.30;2.10;;;22.60;75.90;;;;;;10382486;28;20222;-78
2022/06/10 17:44:14;;;;;;;2.53;2.30;;;22.50;75.30;;;;;;10407638;28;20252;-77
2022/06/10 17:49:21;;;;;;;2.50;2.40;;;22.40;76.40;;;;;;10397652;28;20603;-79
2022/06/10 17:54:24;;;;;;;2.80;2.10;;;22.30;76.10;;;;;;10407082;28;20225;-80
2022/06/10 17:59:31;;;;;;;2.63;2.43;;;22.30;77.90;;;;;;10418903;28;20305;-80
2022/06/10 18:04:33;;;;;;;2.07;1.97;;;22.20;79.80;;;;;;10404337;28;20212;-78
2022/06/10 18:09:37;;;;;;;3.67;2.60;;;22.10;80.60;;;;;;10412822;28;20577;-78
2022/06/10 18:14:54;;;;;;;2.73;2.50;;;22.00;81.40;;;;;;10413688;28;20317;-79
2022/06/10 18:19:56;;;;;;;4.37;3.07;;;21.90;81.80;;;;;;10432878;22;20244;-78
2022/06/10 18:25:00;;;;;;;3.27;2.70;;;21.80;82.00;;;;;;10408408;28;20194;-77
2022/06/10 18:30:06;;;;;;;2.73;2.53;;;21.70;81.90;;;;;;10410770;28;20295;-78
2022/06/10 18:35:23;;;;;;;3.40;2.73;;;21.50;81.80;;;;;;10400179;28;20260;-78
2022/06/10 18:40:29;;;;;;;6.67;2.83;;;21.50;82.10;;;;;;10407549;28;20197;-79
2022/06/10 18:45:33;;;;;;;2.80;2.70;;;21.30;81.80;;;;;;10409121;28;20580;-78
2022/06/10 18:50:36;;;;;;;3.27;3.00;;;21.20;83.20;;;;;;10412105;28;20229;-80
2022/06/10 18:55:40;;;;;;;2.80;2.60;;;21.20;82.80;;;;;;10408299;28;20248;-80
2022/06/10 19:00:45;;;;;;;2.50;2.30;;;21.10;82.80;;;;;;10416575;28;20194;-79
2022/06/10 19:05:47;;;;;;;3.07;2.77;;;21.10;82.90;;;;;;10410686;28;20229;-80
2022/06/10 19:10:51;;;;;;;2.43;2.23;;;21.00;85.00;;;;;;10412815;28;20585;-81
2022/06/10 19:15:56;;;;;;;3.63;2.83;;;20.90;84.10;;;;;;10403125;28;20269;-76
2022/06/10 19:20:58;;;;;;;3.30;3.00;;;20.90;84.90;;;;;;10395340;28;20597;-77
2022/06/10 19:26:06;;;;;;;2.80;2.70;;;20.90;85.80;;;;;;10403675;28;20233;-75
2022/06/10 19:31:17;;;;;;;2.80;2.60;;;20.80;86.40;;;;;;10399101;28;20279;-80
2022/06/10 19:36:30;;;;;;;3.40;2.80;;;20.80;89.30;;;;;;10401211;28;20275;-78
2022/06/10 19:41:33;;;;;;;3.90;2.73;;;20.70;91.00;;;;;;10403323;28;20202;-80
2022/06/10 19:46:38;;;;;;;3.43;3.13;;;20.70;89.70;;;;;;10412373;28;20702;-79
2022/06/10 19:51:41;;;;;;;4.03;3.63;;;20.70;90.80;;;;;;10414386;28;20213;-79
2022/06/10 19:56:44;;;;;;;4.47;3.20;;;20.60;89.10;;;;;;10405646;28;20243;-78
2022/06/10 20:01:49;;;;;;;2.70;2.50;;;20.50;87.70;;;;;;10408216;28;20225;-77
2022/06/10 20:06:54;;;;;;;2.90;2.70;;;20.50;87.10;;;;;;10402567;28;20229;-77
2022/06/10 20:11:58;;;;;;;3.60;2.93;;;20.30;87.70;;;;;;10416312;28;20285;-79
2022/06/10 20:17:01;;;;;;;2.80;2.60;;;20.30;88.40;;;;;;10415241;28;20222;-79
2022/06/10 20:22:03;;;;;;;2.80;2.30;;;20.20;88.50;;;;;;10408253;28;20204;-79
2022/06/10 20:27:07;;;;;;;2.90;2.70;;;20.10;88.80;;;;;;10408652;28;20312;-80
2022/06/10 20:32:21;;;;;;;2.70;2.50;;;20.10;88.50;;;;;;10407367;28;20244;-77
2022/06/10 20:37:23;;;;;;;3.47;3.17;;;20.00;89.70;;;;;;10399173;28;20214;-79
2022/06/10 20:42:27;;;;;;;2.90;2.60;;;19.90;90.00;;;;;;10410310;28;20256;-78
2022/06/10 20:47:34;;;;;;;4.00;3.70;;;19.90;89.00;;;;;;10381648;28;20677;-80
2022/06/10 20:52:39;;;;;;;3.10;2.90;;;19.80;89.80;;;;;;10394211;28;20233;-78
2022/06/10 20:57:42;;;;;;;2.93;2.63;;;19.70;88.80;;;;;;10398400;28;20249;-79
2022/06/10 21:02:45;;;;;;;4.80;3.40;;;19.70;89.00;;;;;;10419015;28;20237;-83
2022/06/10 21:07:50;;;;;;;2.60;2.07;;;19.60;89.20;;;;;;10396451;28;20241;-83
2022/06/10 21:12:56;;;;;;;3.90;3.60;;;19.50;88.60;;;;;;10415170;28;20282;-79
2022/06/10 21:18:01;;;;;;;3.50;3.20;;;19.40;88.80;;;;;;10420074;28;20230;-79
2022/06/10 21:23:05;;;;;;;3.30;3.10;;;19.30;89.80;;;;;;10421410;28;20582;-80
2022/06/10 21:28:13;;;;;;;3.23;2.93;;;19.20;90.40;;;;;;10422063;28;20697;-83
2022/06/10 21:33:19;;;;;;;3.10;2.87;;;19.10;90.80;;;;;;10414722;28;20590;-79
2022/06/10 21:38:21;;;;;;;3.00;2.80;;;19.10;90.60;;;;;;10408596;28;20283;-82
2022/06/10 21:48:47;;;;;;;3.50;3.30;;;19.00;90.40;;;;;;10415730;28;20222;-79
2022/06/10 21:53:51;;;;;;;4.10;2.90;;;19.00;90.60;;;;;;10420429;28;20265;-78
2022/06/10 21:58:57;;;;;;;3.27;2.97;;;18.90;90.70;;;;;;10414985;28;20222;-79
2022/06/10 22:04:02;;;;;;;3.30;3.10;;;18.90;90.70;;;;;;10411543;28;20208;-79
2022/06/10 22:09:07;;;;;;;3.60;3.30;;;18.90;91.30;;;;;;10414811;28;20225;-79
2022/06/10 22:14:11;;;;;;;7.50;3.60;;;18.90;91.90;;;;;;10415753;28;20650;-79
2022/06/10 22:19:21;;;;;;;6.00;4.00;;;18.80;92.20;;;;;;10419228;28;20236;-79
2022/06/10 22:24:27;;;;;;;3.33;3.13;;;18.80;91.50;;;;;;10411244;28;20232;-79
2022/06/10 22:29:31;;;;;;;4.07;3.67;;;18.70;91.90;;;;;;10412025;28;20229;-79
2022/06/10 22:34:36;;;;;;;4.03;3.63;;;18.70;92.70;;;;;;10412340;28;20740;-80
2022/06/10 22:39:38;;;;;;;4.23;3.80;;;18.60;92.10;;;;;;10421074;28;20237;-80
2022/06/10 22:44:43;;;;;;;3.70;3.50;;;18.60;91.80;;;;;;10418510;28;20666;-78
2022/06/10 22:49:48;;;;;;;7.63;4.17;;;18.60;92.90;;;;;;10404332;28;20305;-79
2022/06/10 22:54:53;;;;;;;4.00;3.70;;;18.50;93.00;;;;;;10411162;28;20213;-78
2022/06/10 22:59:57;;;;;;;4.50;3.80;;;18.50;92.80;;;;;;10412829;28;20217;-78
2022/06/10 23:10:32;;;;;;;4.37;3.90;;;18.40;92.80;;;;;;10415592;28;20249;-78
2022/06/10 23:15:36;;;;;;;4.20;3.87;;;18.30;93.20;;;;;;10410608;28;21950;-79
2022/06/10 23:20:43;;;;;;;5.27;3.73;;;18.30;93.30;;;;;;10412421;28;20201;-79
2022/06/10 23:25:46;;;;;;;4.00;3.60;;;18.30;92.90;;;;;;10403718;28;20222;-78
2022/06/10 23:30:55;;;;;;;4.33;3.60;;;18.20;93.20;;;;;;10408262;28;20219;-79
2022/06/10 23:35:57;;;;;;;3.67;3.37;;;18.20;94.00;;;;;;10406094;28;20272;-78
2022/06/10 23:41:02;;;;;;;4.00;3.37;;;18.10;94.00;;;;;;10389850;28;21173;-78
2022/06/10 23:51:28;;;;;;;3.60;3.40;;;18.00;93.30;;;;;;10405261;28;20268;-78
2022/06/10 23:56:30;;;;;;;5.13;3.70;;;17.90;93.80;;;;;;10413345;28;20272;-77
